Terminal Aerodrome Forecast
Issued by NWS

Home | Current Version | Previous Version | Text Only | Print | Product List | Glossary On
Versions: 1 2 3 4 5 6 7 8 9 10 11 12 13 14 15 16 17 18 19 20 21
000
FTUS42 KTAE 241600 AAA
TAFVLD
TAF AMD
KVLD 241602Z 2416/2512 24005KT P6SM BKN025
     FM241900 24008KT P6SM VCTS SCT040CB SCT100
     FM250000 24005KT P6SM BKN250=

USA.gov is the U.S. government's official web portal to all federal, state and local government web resources and services.